Thursday, January 18, 2018, 12:08 AM GMT
Back to Local

CYPQ, Peterborough Airport

Location: , , Canada Lat: 44.233
Local Time: 12:08 AM GMT ( 0:08 GMT) Lon: -78.367
Time Zone: GMT Elev: 626 ft

Show me the last for .
Show Decoded

2018-01-17 23:00 METAR CYPQ 172300Z AUTO 21006KT 9SM SCT070 M08/M12 A3014 RMK SLP220 =
2018-01-17 22:00 METAR CYPQ 172200Z AUTO 21007KT 180V240 9SM CLR M07/M11 A3016 RMK SLP228 =
2018-01-17 21:03 METAR CYPQ 172103Z AUTO 21009KT 9SM BKN030 M06/M11 A3019 RMK SLP238 =
2018-01-17 21:00 METAR CYPQ 172100Z AUTO 22008KT 9SM -SN BKN030 M06/M11 A3019 RMK SLP239 =
2018-01-17 20:25 METAR CYPQ 172025Z AUTO 24012KT 9SM -SN OVC028 M06/M11 A3020 RMK SLP241 =
2018-01-17 20:00 METAR CYPQ 172000Z AUTO 24010KT 9SM OVC030 M06/M10 A3020 RMK SLP243 =
2018-01-17 19:59 METAR CYPQ 171959Z AUTO 24011KT 200V260 9SM OVC030 M06/M10 A3020 RMK SLP243 =
2018-01-17 19:49 METAR CYPQ 171949Z AUTO 24010KT 200V260 9SM -SN OVC030 M06/M11 A3020 RMK SLP243
                 =
2018-01-17 19:20 METAR CYPQ 171920Z AUTO 25009KT 9SM BKN034 M06/M11 A3021 RMK SLP246 =
2018-01-17 19:10 METAR CYPQ 171910Z AUTO 24008KT 9SM -SN BKN034 M06/M11 A3021 RMK SLP246
2018-01-17 19:00 METAR CYPQ 171900Z AUTO 24009KT 9SM BKN034 M06/M11 A3022 RMK SLP247 =
2018-01-17 18:00 METAR CYPQ 171800Z AUTO 24008KT 9SM SCT028 M06/M11 A3024 RMK SLP256 =
2018-01-17 17:00 METAR CYPQ 171700Z AUTO 25009KT 9SM CLR M06/M11 A3027 RMK SLP266 =
2018-01-17 16:00 METAR CYPQ 171600Z AUTO 26011KT 9SM CLR M07/M11 A3031 RMK SLP279 =
2018-01-17 15:00 METAR CYPQ 171500Z AUTO 24007KT 9SM CLR M09/M10 A3033 RMK SLP287 =
2018-01-17 14:30 METAR CYPQ 171430Z AUTO VRB02KT 6SM BR CLR M11/M12 A3032 RMK SLP283 =
2018-01-17 14:13 METAR CYPQ 171413Z AUTO VRB02KT 3SM BR CLR M13/M13 A3032 RMK VIS VRB 2 1/4-3
                 SLP284 =
2018-01-17 14:02 METAR CYPQ 171402Z AUTO 00000KT 2 1/2SM BR CLR M14/M15 A3032 RMK SLP284 =
2018-01-17 14:00 METAR CYPQ 171400Z AUTO 00000KT 3SM BR CLR M14/M15 A3032 RMK SLP284 =
2018-01-17 13:34 METAR CYPQ 171334Z AUTO 26002KT 3SM BR CLR M13/M14 A3032 RMK SLP284 =
2018-01-17 13:33 METAR CYPQ 171333Z AUTO 26002KT 2 1/2SM BR CLR M13/M14 A3032 RMK SLP284 =
2018-01-17 13:22 METAR CYPQ 171322Z AUTO 26002KT 2SM BR CLR M13/M14 A3032 RMK SLP284 =
2018-01-17 13:20 METAR CYPQ 171320Z AUTO 26002KT 2 1/2SM BR CLR M14/M15 A3032 RMK SLP284
2018-01-17 13:00 METAR CYPQ 171300Z AUTO 24002KT 5SM BR BKN045 M12/M12 A3032 RMK SLP284 =
2018-01-17 12:59 METAR CYPQ 171259Z AUTO 25002KT 5SM BR BKN045 M12/M12 A3032 RMK SLP284 =
2018-01-17 12:52 METAR CYPQ 171252Z AUTO 00000KT 5SM -SN BKN045 M11/M11 A3032 RMK SLP284 =
2018-01-17 12:00 METAR CYPQ 171200Z AUTO VRB02KT 7SM -SN OVC039 M10/M10 A3033 RMK SLP288 =
2018-01-17 11:11 METAR CYPQ 171111Z AUTO VRB02KT 6SM -SN OVC039 M10/M10 A3033 RMK SLP289 =
2018-01-17 11:00 METAR CYPQ 171100Z AUTO 34002KT 5SM -SN OVC039 M10/M10 A3033 RMK SLP287 =
2018-01-17 10:32 METAR CYPQ 171032Z AUTO 00000KT 4SM -SN SCT019 BKN027 OVC039 M10/M10 A3033 RMK
                 SLP285 =
2018-01-17 10:17 METAR CYPQ 171017Z AUTO 00000KT 3SM -SN BKN021 OVC027 M10/M10 A3033 RMK SLP285 =
2018-01-17 10:03 METAR CYPQ 171003Z AUTO 00000KT 2 1/2SM -SN BKN022 OVC042 M10/M10 A3033 RMK VIS
                 VRB 1 1/2-3 SLP285 =
2018-01-17 10:01 METAR CYPQ 171001Z AUTO 00000KT 2 1/2SM -SN SCT022 OVC042 M10/M10 A3033 RMK VIS
                 VRB 1 1/2-3 SLP285 =
2018-01-17 10:00 METAR CYPQ 171000Z AUTO 00000KT 3SM -SN SCT022 OVC042 M10/M10 A3032 RMK SLP284 =
2018-01-17 09:37 METAR CYPQ 170937Z AUTO 00000KT 3SM -SN OVC038 M09/M10 A3033 RMK SLP285 =
2018-01-17 09:35 METAR CYPQ 170935Z AUTO 00000KT 2 1/2SM -SN OVC038 M09/M10 A3033 RMK VIS VRB 1
                 1/2-3 SLP285 =
2018-01-17 09:26 METAR CYPQ 170926Z AUTO 00000KT 2 1/4SM -SN OVC038 M09/M10 A3033 RMK VIS VRB 1
                 1/4-3 SLP285 =
2018-01-17 09:21 METAR CYPQ 170921Z AUTO 00000KT 2 1/2SM -SN OVC038 M09/M10 A3033 RMK VIS VRB 1
                 1/4-3 SLP285 =
2018-01-17 09:17 METAR CYPQ 170917Z AUTO 00000KT 2 1/4SM -SN FEW015 OVC038 M09/M10 A3033 RMK VIS
                 VRB 1 1/4-3 SLP285 =
2018-01-17 09:05 METAR CYPQ 170905Z AUTO 00000KT 3SM -SN OVC038 M09/M10 A3033 RMK SLP286 =
2018-01-17 09:03 METAR CYPQ 170903Z AUTO 00000KT 2 1/2SM -SN OVC038 M09/M10 A3033 RMK VIS VRB 1
                 1/4-3 SLP286 =
2018-01-17 09:00 METAR CYPQ 170900Z AUTO 32002KT 2 1/4SM -SN OVC038 M09/M10 A3033 RMK VIS VRB 1
                 1/4-3 SLP285 =
2018-01-17 08:55 METAR CYPQ 170855Z AUTO 31003KT 2 1/4SM -SN OVC038 M09/M10 A3033 RMK VIS VRB 1
                 1/4-3 SLP286 =
2018-01-17 08:45 METAR CYPQ 170845Z AUTO VRB02KT 3SM -SN OVC038 M09/M10 A3033 RMK SLP287 =
2018-01-17 08:42 METAR CYPQ 170842Z AUTO VRB02KT 2 1/2SM -SN OVC038 M09/M10 A3033 RMK SLP287 =
2018-01-17 08:32 METAR CYPQ 170832Z AUTO 00000KT 2SM -SN OVC038 M09/M10 A3033 RMK SLP287 =
2018-01-17 08:30 METAR CYPQ 170830Z AUTO 00000KT 2 1/2SM -SN OVC038 M09/M10 A3033 RMK VIS VRB 1
                 1/4-3 SLP287 =
2018-01-17 08:00 METAR CYPQ 170800Z AUTO 00000KT 3SM -SN OVC036 M09/M10 A3034 RMK SLP288 =
2018-01-17 07:17 METAR CYPQ 170717Z AUTO 26002KT 3SM -SN FEW013 OVC034 M09/M10 A3033 RMK SLP287 =
2018-01-17 07:11 METAR CYPQ 170711Z AUTO 28003KT 2 1/2SM -SN FEW013 OVC034 M09/M10 A3033 RMK VIS
                 VRB 1 1/4-3 SLP287 =
2018-01-17 07:00 METAR CYPQ 170700Z AUTO 27003KT 3SM -SN FEW013 OVC034 M09/M10 A3033 RMK SLP287 =
2018-01-17 06:43 METAR CYPQ 170643Z AUTO 29002KT 3SM -SN FEW013 OVC036 M09/M10 A3033 RMK SLP287 =
2018-01-17 06:23 METAR CYPQ 170623Z AUTO 00000KT 2 1/2SM -SN OVC036 M09/M10 A3033 RMK VIS VRB 1
                 3/4-3 SLP286 =
2018-01-17 06:17 METAR CYPQ 170617Z AUTO 00000KT 2 1/4SM -SN OVC036 M09/M10 A3033 RMK VIS VRB 1
                 1/4-3 SLP285 =
2018-01-17 06:08 METAR CYPQ 170608Z AUTO 00000KT 3SM -SN OVC036 M09/M10 A3033 RMK SLP286 =
2018-01-17 06:05 METAR CYPQ 170605Z AUTO 00000KT 2 1/2SM -SN OVC036 M09/M10 A3033 RMK VIS VRB 1
                 1/2-3 SLP287 =
2018-01-17 06:00 METAR CYPQ 170600Z AUTO 00000KT 2SM -SN OVC036 M09/M10 A3033 RMK VIS VRB 1 1/4-3
                 SLP287 =
2018-01-17 05:56 METAR CYPQ 170556Z AUTO 00000KT 2SM -SN OVC036 M09/M10 A3033 RMK VIS VRB 1 1/4-3
                 SLP288 =
2018-01-17 05:25 METAR CYPQ 170525Z AUTO 00000KT 2 1/2SM -SN FEW030 OVC038 M09/M10 A3033 RMK VIS
                 VRB 1 1/2-3 SLP288 =
2018-01-17 05:00 METAR CYPQ 170500Z AUTO VRB02KT 2SM -SN FEW016 BKN029 OVC040 M09/M10 A3034 RMK
                 VIS VRB 1 1/4-3 SLP290 =
2018-01-17 04:52 METAR CYPQ 170452Z AUTO 02002KT 1 3/4SM -SN FEW016 BKN025 OVC040 M09/M10 A3034
                 RMK VIS VRB 1 1/4-3 SLP291 =
2018-01-17 04:46 METAR CYPQ 170446Z AUTO VRB02KT 1 1/2SM -SN BKN023 OVC040 M09/M10 A3035 RMK
                 SLP292 =
2018-01-17 04:25 METAR CYPQ 170425Z AUTO 32002KT 1 1/4SM -SN OVC023 M09/M10 A3035 RMK SLP293 =
2018-01-17 04:09 METAR CYPQ 170409Z AUTO 00000KT 1 1/4SM -SN OVC027 M09/M10 A3035 RMK SLP294 =
2018-01-17 04:00 METAR CYPQ 170400Z AUTO VRB02KT 1 3/4SM -SN OVC027 M09/M10 A3035 RMK SLP294 =
2018-01-17 03:17 METAR CYPQ 170317Z AUTO 28004KT 2 1/4SM -SN BKN029 OVC048 M09/M10 A3035 RMK VIS
                 VRB 1 1/4-3 SLP294 =
2018-01-17 03:04 METAR CYPQ 170304Z AUTO VRB02KT 5SM -SN SCT033 BKN042 OVC050 M10/M10 A3035 RMK
                 SLP295 =
2018-01-17 03:00 METAR CYPQ 170300Z AUTO 00000KT 7SM -SN SCT038 OVC050 M10/M10 A3035 RMK SLP294 =
2018-01-17 02:41 METAR CYPQ 170241Z AUTO VRB02KT 9SM -SN OVC055 M10/M11 A3035 RMK SLP294 =
2018-01-17 02:35 METAR CYPQ 170235Z AUTO 00000KT 9SM OVC055 M10/M11 A3035 RMK SLP293 =
2018-01-17 02:00 METAR CYPQ 170200Z AUTO 02003KT 020V110 9SM -SN OVC048 M10/M11 A3035 RMK SLP295
                 =
2018-01-17 01:55 METAR CYPQ 170155Z AUTO 00000KT 9SM -SN OVC048 M10/M11 A3035 RMK SLP296 =
2018-01-17 01:41 METAR CYPQ 170141Z AUTO 00000KT 9SM OVC048 M10/M11 A3036 RMK SLP297 =
2018-01-17 01:29 METAR CYPQ 170129Z AUTO 20003KT 190V280 9SM -SN OVC050 M11/M11 A3036 RMK SLP297
                 =
2018-01-17 01:00 METAR CYPQ 170100Z AUTO VRB03KT 9SM OVC050 M10/M11 A3036 RMK SLP297 =

Support USWX by starting your Amazon purchase here.